sensor_id;sensor_type;location;lat;lon;timestamp;temperature;humidity
64987;DHT22;67903;52.108;9.358;2024-03-08T00:00:09;1.50;75.30
64987;DHT22;67903;52.108;9.358;2024-03-08T00:02:57;1.50;75.60
64987;DHT22;67903;52.108;9.358;2024-03-08T00:05:43;1.40;75.80
64987;DHT22;67903;52.108;9.358;2024-03-08T00:08:28;1.40;76.00
64987;DHT22;67903;52.108;9.358;2024-03-08T00:11:15;1.40;75.90
64987;DHT22;67903;52.108;9.358;2024-03-08T00:14:00;1.40;76.00
64987;DHT22;67903;52.108;9.358;2024-03-08T00:16:47;1.40;76.20
64987;DHT22;67903;52.108;9.358;2024-03-08T00:19:32;1.40;76.10
64987;DHT22;67903;52.108;9.358;2024-03-08T00:22:17;1.30;76.30
64987;DHT22;67903;52.108;9.358;2024-03-08T00:25:04;1.20;76.20
64987;DHT22;67903;52.108;9.358;2024-03-08T00:27:49;1.20;76.70
64987;DHT22;67903;52.108;9.358;2024-03-08T00:30:35;1.10;76.70
64987;DHT22;67903;52.108;9.358;2024-03-08T00:33:21;1.10;77.00
64987;DHT22;67903;52.108;9.358;2024-03-08T00:36:06;1.10;76.90
64987;DHT22;67903;52.108;9.358;2024-03-08T00:38:53;1.10;77.00
64987;DHT22;67903;52.108;9.358;2024-03-08T00:41:38;1.10;76.90
64987;DHT22;67903;52.108;9.358;2024-03-08T00:44:24;1.20;76.70
64987;DHT22;67903;52.108;9.358;2024-03-08T00:47:10;1.20;76.20
64987;DHT22;67903;52.108;9.358;2024-03-08T00:49:55;1.30;75.70
64987;DHT22;67903;52.108;9.358;2024-03-08T00:52:42;1.30;75.50
64987;DHT22;67903;52.108;9.358;2024-03-08T00:55:27;1.30;75.30
64987;DHT22;67903;52.108;9.358;2024-03-08T00:58:13;1.40;75.40
64987;DHT22;67903;52.108;9.358;2024-03-08T01:00:58;1.30;75.20
64987;DHT22;67903;52.108;9.358;2024-03-08T01:03:44;1.30;75.10
64987;DHT22;67903;52.108;9.358;2024-03-08T01:06:30;1.30;75.20
64987;DHT22;67903;52.108;9.358;2024-03-08T01:09:15;1.20;75.40
64987;DHT22;67903;52.108;9.358;2024-03-08T01:12:03;1.20;75.40
64987;DHT22;67903;52.108;9.358;2024-03-08T01:14:48;1.20;75.60
64987;DHT22;67903;52.108;9.358;2024-03-08T01:17:34;1.10;75.70
64987;DHT22;67903;52.108;9.358;2024-03-08T01:20:19;1.10;75.80
64987;DHT22;67903;52.108;9.358;2024-03-08T01:23:06;1.10;75.80
64987;DHT22;67903;52.108;9.358;2024-03-08T01:25:52;1.10;75.90
64987;DHT22;67903;52.108;9.358;2024-03-08T01:28:42;1.10;75.70
64987;DHT22;67903;52.108;9.358;2024-03-08T01:31:27;1.10;75.60
64987;DHT22;67903;52.108;9.358;2024-03-08T01:34:14;1.10;75.90
64987;DHT22;67903;52.108;9.358;2024-03-08T01:36:59;1.00;75.90
64987;DHT22;67903;52.108;9.358;2024-03-08T01:39:46;1.00;76.50
64987;DHT22;67903;52.108;9.358;2024-03-08T01:42:32;1.00;76.50
64987;DHT22;67903;52.108;9.358;2024-03-08T01:45:18;0.90;77.00
64987;DHT22;67903;52.108;9.358;2024-03-08T01:48:04;0.90;77.10
64987;DHT22;67903;52.108;9.358;2024-03-08T01:50:50;0.90;77.20
64987;DHT22;67903;52.108;9.358;2024-03-08T01:53:36;1.00;76.90
64987;DHT22;67903;52.108;9.358;2024-03-08T01:56:24;1.00;76.90
64987;DHT22;67903;52.108;9.358;2024-03-08T01:59:10;1.00;76.70
64987;DHT22;67903;52.108;9.358;2024-03-08T02:02:01;0.80;77.00
64987;DHT22;67903;52.108;9.358;2024-03-08T02:04:47;0.80;77.10
64987;DHT22;67903;52.108;9.358;2024-03-08T02:07:32;0.80;77.30
64987;DHT22;67903;52.108;9.358;2024-03-08T02:10:18;0.80;77.60
64987;DHT22;67903;52.108;9.358;2024-03-08T02:13:04;0.60;77.60
64987;DHT22;67903;52.108;9.358;2024-03-08T02:15:57;0.60;78.50
64987;DHT22;67903;52.108;9.358;2024-03-08T02:18:46;0.60;78.70
64987;DHT22;67903;52.108;9.358;2024-03-08T02:21:32;0.50;78.80
64987;DHT22;67903;52.108;9.358;2024-03-08T02:24:18;0.50;79.20
64987;DHT22;67903;52.108;9.358;2024-03-08T02:27:04;0.50;79.20
64987;DHT22;67903;52.108;9.358;2024-03-08T02:29:52;0.50;79.30
64987;DHT22;67903;52.108;9.358;2024-03-08T02:32:40;0.40;79.40
64987;DHT22;67903;52.108;9.358;2024-03-08T02:35:26;0.40;79.40
64987;DHT22;67903;52.108;9.358;2024-03-08T02:38:16;0.40;79.60
64987;DHT22;67903;52.108;9.358;2024-03-08T02:41:01;0.50;79.50
64987;DHT22;67903;52.108;9.358;2024-03-08T02:43:49;0.40;79.40
64987;DHT22;67903;52.108;9.358;2024-03-08T02:46:35;0.40;79.60
64987;DHT22;67903;52.108;9.358;2024-03-08T02:49:21;0.40;79.50
64987;DHT22;67903;52.108;9.358;2024-03-08T02:52:07;0.40;79.70
64987;DHT22;67903;52.108;9.358;2024-03-08T02:54:52;0.40;79.60
64987;DHT22;67903;52.108;9.358;2024-03-08T02:57:38;0.30;79.60
64987;DHT22;67903;52.108;9.358;2024-03-08T03:00:24;0.30;79.60
64987;DHT22;67903;52.108;9.358;2024-03-08T03:03:10;0.20;80.00
64987;DHT22;67903;52.108;9.358;2024-03-08T03:05:56;0.20;80.00
64987;DHT22;67903;52.108;9.358;2024-03-08T03:08:41;0.20;79.90
64987;DHT22;67903;52.108;9.358;2024-03-08T03:11:29;0.20;79.80
64987;DHT22;67903;52.108;9.358;2024-03-08T03:14:14;0.20;79.80
64987;DHT22;67903;52.108;9.358;2024-03-08T03:17:01;0.00;80.10
64987;DHT22;67903;52.108;9.358;2024-03-08T03:19:47;0.00;80.00
64987;DHT22;67903;52.108;9.358;2024-03-08T03:22:33;0.20;79.80
64987;DHT22;67903;52.108;9.358;2024-03-08T03:25:20;0.20;79.50
64987;DHT22;67903;52.108;9.358;2024-03-08T03:28:14;0.20;79.30
64987;DHT22;67903;52.108;9.358;2024-03-08T03:31:03;0.20;79.10
64987;DHT22;67903;52.108;9.358;2024-03-08T03:33:50;0.10;79.30
64987;DHT22;67903;52.108;9.358;2024-03-08T03:36:37;0.00;79.90
64987;DHT22;67903;52.108;9.358;2024-03-08T03:39:23;-0.10;80.50
64987;DHT22;67903;52.108;9.358;2024-03-08T03:42:09;-0.10;81.00
64987;DHT22;67903;52.108;9.358;2024-03-08T03:44:54;-0.10;81.20
64987;DHT22;67903;52.108;9.358;2024-03-08T03:47:40;-0.10;81.40
64987;DHT22;67903;52.108;9.358;2024-03-08T03:50:28;-0.10;81.20
64987;DHT22;67903;52.108;9.358;2024-03-08T03:53:13;-0.10;81.40
64987;DHT22;67903;52.108;9.358;2024-03-08T03:55:59;-0.10;81.40
64987;DHT22;67903;52.108;9.358;2024-03-08T03:58:44;-0.10;81.40
64987;DHT22;67903;52.108;9.358;2024-03-08T04:01:30;-0.10;81.20
64987;DHT22;67903;52.108;9.358;2024-03-08T04:04:16;0.00;80.80
64987;DHT22;67903;52.108;9.358;2024-03-08T04:07:01;0.00;80.20
64987;DHT22;67903;52.108;9.358;2024-03-08T04:09:47;0.00;80.00
64987;DHT22;67903;52.108;9.358;2024-03-08T04:12:36;0.00;80.00
64987;DHT22;67903;52.108;9.358;2024-03-08T04:15:21;0.00;80.30
64987;DHT22;67903;52.108;9.358;2024-03-08T04:18:07;-0.10;80.20
64987;DHT22;67903;52.108;9.358;2024-03-08T04:20:52;-0.10;80.40
64987;DHT22;67903;52.108;9.358;2024-03-08T04:23:38;-0.10;80.50
64987;DHT22;67903;52.108;9.358;2024-03-08T04:26:23;-0.10;80.30
64987;DHT22;67903;52.108;9.358;2024-03-08T04:29:09;-0.10;80.30
64987;DHT22;67903;52.108;9.358;2024-03-08T04:31:54;0.00;80.20
64987;DHT22;67903;52.108;9.358;2024-03-08T04:34:40;0.00;79.60
64987;DHT22;67903;52.108;9.358;2024-03-08T04:37:30;0.00;79.60
64987;DHT22;67903;52.108;9.358;2024-03-08T04:40:15;0.00;79.80
64987;DHT22;67903;52.108;9.358;2024-03-08T04:43:00;0.00;79.50
64987;DHT22;67903;52.108;9.358;2024-03-08T04:45:46;0.00;79.50
64987;DHT22;67903;52.108;9.358;2024-03-08T04:48:32;0.00;79.40
64987;DHT22;67903;52.108;9.358;2024-03-08T04:51:17;0.00;79.60
64987;DHT22;67903;52.108;9.358;2024-03-08T04:54:05;0.00;79.40
64987;DHT22;67903;52.108;9.358;2024-03-08T04:56:50;0.00;79.20
64987;DHT22;67903;52.108;9.358;2024-03-08T04:59:36;0.00;79.10
64987;DHT22;67903;52.108;9.358;2024-03-08T05:02:22;-0.10;79.20
64987;DHT22;67903;52.108;9.358;2024-03-08T05:05:10;-0.10;79.20
64987;DHT22;67903;52.108;9.358;2024-03-08T05:07:57;-0.10;78.90
64987;DHT22;67903;52.108;9.358;2024-03-08T05:10:43;-0.10;78.90
64987;DHT22;67903;52.108;9.358;2024-03-08T05:13:29;-0.10;78.70
64987;DHT22;67903;52.108;9.358;2024-03-08T05:16:15;-0.10;78.40
64987;DHT22;67903;52.108;9.358;2024-03-08T05:19:01;0.00;77.80
64987;DHT22;67903;52.108;9.358;2024-03-08T05:21:48;0.00;77.40
64987;DHT22;67903;52.108;9.358;2024-03-08T05:24:34;0.00;77.30
64987;DHT22;67903;52.108;9.358;2024-03-08T05:27:21;0.00;77.30
64987;DHT22;67903;52.108;9.358;2024-03-08T05:30:06;0.00;77.10
64987;DHT22;67903;52.108;9.358;2024-03-08T05:32:52;0.00;77.10
64987;DHT22;67903;52.108;9.358;2024-03-08T05:35:38;0.00;77.30
64987;DHT22;67903;52.108;9.358;2024-03-08T05:38:23;0.00;77.50
64987;DHT22;67903;52.108;9.358;2024-03-08T05:41:10;0.00;77.40
64987;DHT22;67903;52.108;9.358;2024-03-08T05:43:56;0.00;77.70
64987;DHT22;67903;52.108;9.358;2024-03-08T05:46:42;-0.10;77.70
64987;DHT22;67903;52.108;9.358;2024-03-08T05:49:28;-0.10;77.90
64987;DHT22;67903;52.108;9.358;2024-03-08T05:52:13;-0.10;78.10
64987;DHT22;67903;52.108;9.358;2024-03-08T05:54:59;-0.10;77.80
64987;DHT22;67903;52.108;9.358;2024-03-08T05:57:45;-0.10;78.10
64987;DHT22;67903;52.108;9.358;2024-03-08T06:00:30;-0.10;78.20
64987;DHT22;67903;52.108;9.358;2024-03-08T06:03:16;-0.10;78.30
64987;DHT22;67903;52.108;9.358;2024-03-08T06:06:01;-0.10;78.50
64987;DHT22;67903;52.108;9.358;2024-03-08T06:08:48;-0.10;78.40
64987;DHT22;67903;52.108;9.358;2024-03-08T06:11:37;-0.10;78.20
64987;DHT22;67903;52.108;9.358;2024-03-08T06:14:23;-0.10;78.30
64987;DHT22;67903;52.108;9.358;2024-03-08T06:17:09;-0.10;78.10
64987;DHT22;67903;52.108;9.358;2024-03-08T06:19:54;-0.10;78.30
64987;DHT22;67903;52.108;9.358;2024-03-08T06:22:40;-0.10;78.10
64987;DHT22;67903;52.108;9.358;2024-03-08T06:25:30;-0.10;78.50
64987;DHT22;67903;52.108;9.358;2024-03-08T06:28:16;-0.10;78.50
64987;DHT22;67903;52.108;9.358;2024-03-08T06:31:02;-0.10;78.40
64987;DHT22;67903;52.108;9.358;2024-03-08T06:33:48;0.00;78.10
64987;DHT22;67903;52.108;9.358;2024-03-08T06:36:35;0.00;77.90
64987;DHT22;67903;52.108;9.358;2024-03-08T06:39:22;0.00;77.80
64987;DHT22;67903;52.108;9.358;2024-03-08T06:42:10;0.00;77.50
64987;DHT22;67903;52.108;9.358;2024-03-08T06:44:57;0.00;77.40
64987;DHT22;67903;52.108;9.358;2024-03-08T06:47:49;0.10;77.20
64987;DHT22;67903;52.108;9.358;2024-03-08T06:50:35;0.10;76.80
64987;DHT22;67903;52.108;9.358;2024-03-08T06:53:21;0.10;76.70
64987;DHT22;67903;52.108;9.358;2024-03-08T06:56:09;0.20;76.60
64987;DHT22;67903;52.108;9.358;2024-03-08T06:58:55;0.30;76.20
64987;DHT22;67903;52.108;9.358;2024-03-08T07:01:40;0.30;76.00
64987;DHT22;67903;52.108;9.358;2024-03-08T07:04:26;0.30;76.00
64987;DHT22;67903;52.108;9.358;2024-03-08T07:07:14;0.40;76.00
64987;DHT22;67903;52.108;9.358;2024-03-08T07:10:00;0.40;75.80
64987;DHT22;67903;52.108;9.358;2024-03-08T07:12:46;0.40;75.70
64987;DHT22;67903;52.108;9.358;2024-03-08T07:15:32;0.40;75.70
64987;DHT22;67903;52.108;9.358;2024-03-08T07:18:18;0.40;75.60
64987;DHT22;67903;52.108;9.358;2024-03-08T07:21:03;0.50;75.60
64987;DHT22;67903;52.108;9.358;2024-03-08T07:23:49;0.50;75.70
64987;DHT22;67903;52.108;9.358;2024-03-08T07:26:46;0.50;75.50
64987;DHT22;67903;52.108;9.358;2024-03-08T07:29:34;0.50;75.30
64987;DHT22;67903;52.108;9.358;2024-03-08T07:32:20;0.60;75.40
64987;DHT22;67903;52.108;9.358;2024-03-08T07:35:07;0.60;75.50
64987;DHT22;67903;52.108;9.358;2024-03-08T07:37:52;0.70;75.00
64987;DHT22;67903;52.108;9.358;2024-03-08T07:40:41;0.80;75.10
64987;DHT22;67903;52.108;9.358;2024-03-08T07:43:30;0.80;75.00
64987;DHT22;67903;52.108;9.358;2024-03-08T07:46:15;0.80;74.80
64987;DHT22;67903;52.108;9.358;2024-03-08T07:49:03;0.80;74.60
64987;DHT22;67903;52.108;9.358;2024-03-08T07:51:49;0.80;74.60
64987;DHT22;67903;52.108;9.358;2024-03-08T07:54:35;0.90;74.40
64987;DHT22;67903;52.108;9.358;2024-03-08T07:57:20;1.00;74.10
64987;DHT22;67903;52.108;9.358;2024-03-08T08:00:06;1.00;74.00
64987;DHT22;67903;52.108;9.358;2024-03-08T08:02:56;1.10;73.90
64987;DHT22;67903;52.108;9.358;2024-03-08T08:05:41;1.10;73.60
64987;DHT22;67903;52.108;9.358;2024-03-08T08:08:27;1.20;73.00
64987;DHT22;67903;52.108;9.358;2024-03-08T08:11:13;1.30;73.10
64987;DHT22;67903;52.108;9.358;2024-03-08T08:14:01;1.40;73.00
64987;DHT22;67903;52.108;9.358;2024-03-08T08:16:46;1.40;73.10
64987;DHT22;67903;52.108;9.358;2024-03-08T08:19:33;1.40;72.90
64987;DHT22;67903;52.108;9.358;2024-03-08T08:22:18;1.50;72.30
64987;DHT22;67903;52.108;9.358;2024-03-08T08:25:04;1.50;72.30
64987;DHT22;67903;52.108;9.358;2024-03-08T08:27:50;1.50;72.50
64987;DHT22;67903;52.108;9.358;2024-03-08T08:30:35;1.60;72.40
64987;DHT22;67903;52.108;9.358;2024-03-08T08:33:21;1.60;72.10
64987;DHT22;67903;52.108;9.358;2024-03-08T08:36:07;1.70;72.20
64987;DHT22;67903;52.108;9.358;2024-03-08T08:38:52;1.70;72.20
64987;DHT22;67903;52.108;9.358;2024-03-08T08:41:41;1.80;72.20
64987;DHT22;67903;52.108;9.358;2024-03-08T08:44:27;1.90;71.80
64987;DHT22;67903;52.108;9.358;2024-03-08T08:47:12;1.90;71.40
64987;DHT22;67903;52.108;9.358;2024-03-08T08:50:01;1.90;70.90
64987;DHT22;67903;52.108;9.358;2024-03-08T08:52:47;2.00;70.70
64987;DHT22;67903;52.108;9.358;2024-03-08T08:55:32;2.10;71.00
64987;DHT22;67903;52.108;9.358;2024-03-08T08:58:19;2.20;70.80
64987;DHT22;67903;52.108;9.358;2024-03-08T09:01:05;2.30;70.20
64987;DHT22;67903;52.108;9.358;2024-03-08T09:03:50;2.30;70.00
64987;DHT22;67903;52.108;9.358;2024-03-08T09:06:37;2.40;70.00
64987;DHT22;67903;52.108;9.358;2024-03-08T09:09:23;2.50;70.20
64987;DHT22;67903;52.108;9.358;2024-03-08T09:12:10;2.50;70.10
64987;DHT22;67903;52.108;9.358;2024-03-08T09:14:59;2.70;69.70
64987;DHT22;67903;52.108;9.358;2024-03-08T09:17:44;2.70;69.70
64987;DHT22;67903;52.108;9.358;2024-03-08T09:20:30;2.80;69.20
64987;DHT22;67903;52.108;9.358;2024-03-08T09:23:19;2.90;69.00
64987;DHT22;67903;52.108;9.358;2024-03-08T09:26:04;3.00;68.50
64987;DHT22;67903;52.108;9.358;2024-03-08T09:28:58;3.00;68.00
64987;DHT22;67903;52.108;9.358;2024-03-08T09:31:43;3.10;68.20
64987;DHT22;67903;52.108;9.358;2024-03-08T09:34:31;3.10;68.40
64987;DHT22;67903;52.108;9.358;2024-03-08T09:37:23;3.10;68.00
64987;DHT22;67903;52.108;9.358;2024-03-08T09:40:09;3.10;68.00
64987;DHT22;67903;52.108;9.358;2024-03-08T09:42:55;3.30;67.80
64987;DHT22;67903;52.108;9.358;2024-03-08T09:45:43;3.30;67.50
64987;DHT22;67903;52.108;9.358;2024-03-08T09:48:30;3.30;67.00
64987;DHT22;67903;52.108;9.358;2024-03-08T09:51:16;3.30;67.40
64987;DHT22;67903;52.108;9.358;2024-03-08T09:54:02;3.40;66.80
64987;DHT22;67903;52.108;9.358;2024-03-08T09:57:03;3.40;67.00
64987;DHT22;67903;52.108;9.358;2024-03-08T09:59:49;3.50;67.00
64987;DHT22;67903;52.108;9.358;2024-03-08T10:02:36;3.50;67.40
64987;DHT22;67903;52.108;9.358;2024-03-08T10:05:21;3.60;67.10
64987;DHT22;67903;52.108;9.358;2024-03-08T10:08:08;3.70;67.00
64987;DHT22;67903;52.108;9.358;2024-03-08T10:10:54;3.70;66.70
64987;DHT22;67903;52.108;9.358;2024-03-08T10:13:40;3.70;66.60
64987;DHT22;67903;52.108;9.358;2024-03-08T10:16:27;3.90;66.60
64987;DHT22;67903;52.108;9.358;2024-03-08T10:19:14;3.90;66.90
64987;DHT22;67903;52.108;9.358;2024-03-08T10:21:59;4.00;66.00
64987;DHT22;67903;52.108;9.358;2024-03-08T10:24:46;4.10;66.30
64987;DHT22;67903;52.108;9.358;2024-03-08T10:27:32;4.20;65.70
64987;DHT22;67903;52.108;9.358;2024-03-08T10:30:17;4.40;64.30
64987;DHT22;67903;52.108;9.358;2024-03-08T10:33:06;4.50;64.50
64987;DHT22;67903;52.108;9.358;2024-03-08T10:35:53;4.50;64.60
64987;DHT22;67903;52.108;9.358;2024-03-08T10:38:42;4.60;64.00
64987;DHT22;67903;52.108;9.358;2024-03-08T10:41:34;4.60;63.90
64987;DHT22;67903;52.108;9.358;2024-03-08T10:47:26;4.70;64.30
64987;DHT22;67903;52.108;9.358;2024-03-08T10:50:19;4.70;64.10
64987;DHT22;67903;52.108;9.358;2024-03-08T10:53:09;4.70;64.20
64987;DHT22;67903;52.108;9.358;2024-03-08T10:55:59;4.90;63.60
64987;DHT22;67903;52.108;9.358;2024-03-08T10:58:46;5.00;63.10
64987;DHT22;67903;52.108;9.358;2024-03-08T11:01:32;5.00;63.00
64987;DHT22;67903;52.108;9.358;2024-03-08T11:04:17;5.00;63.30
64987;DHT22;67903;52.108;9.358;2024-03-08T11:07:08;5.10;62.90
64987;DHT22;67903;52.108;9.358;2024-03-08T11:10:03;5.10;62.90
64987;DHT22;67903;52.108;9.358;2024-03-08T11:12:55;5.10;62.60
64987;DHT22;67903;52.108;9.358;2024-03-08T11:15:42;5.20;61.70
64987;DHT22;67903;52.108;9.358;2024-03-08T11:18:27;5.30;61.80
64987;DHT22;67903;52.108;9.358;2024-03-08T11:21:13;5.30;61.90
64987;DHT22;67903;52.108;9.358;2024-03-08T11:24:10;5.30;62.20
64987;DHT22;67903;52.108;9.358;2024-03-08T11:26:59;5.30;62.70
64987;DHT22;67903;52.108;9.358;2024-03-08T11:29:44;5.50;63.10
64987;DHT22;67903;52.108;9.358;2024-03-08T11:32:30;5.60;62.00
64987;DHT22;67903;52.108;9.358;2024-03-08T11:35:22;5.60;62.10
64987;DHT22;67903;52.108;9.358;2024-03-08T11:38:10;5.60;62.20
64987;DHT22;67903;52.108;9.358;2024-03-08T11:40:57;5.70;62.80
64987;DHT22;67903;52.108;9.358;2024-03-08T11:43:43;5.70;62.50
64987;DHT22;67903;52.108;9.358;2024-03-08T11:46:28;5.80;62.20
64987;DHT22;67903;52.108;9.358;2024-03-08T11:49:14;5.90;61.10
64987;DHT22;67903;52.108;9.358;2024-03-08T11:51:59;6.00;61.20
64987;DHT22;67903;52.108;9.358;2024-03-08T11:54:52;6.00;60.90
64987;DHT22;67903;52.108;9.358;2024-03-08T11:57:39;6.10;60.40
64987;DHT22;67903;52.108;9.358;2024-03-08T12:00:25;6.10;59.60
64987;DHT22;67903;52.108;9.358;2024-03-08T12:03:12;6.10;59.30
64987;DHT22;67903;52.108;9.358;2024-03-08T12:05:57;6.10;59.80
64987;DHT22;67903;52.108;9.358;2024-03-08T12:08:46;6.30;59.50
64987;DHT22;67903;52.108;9.358;2024-03-08T12:11:36;6.30;59.70
64987;DHT22;67903;52.108;9.358;2024-03-08T12:14:22;6.30;59.50
64987;DHT22;67903;52.108;9.358;2024-03-08T12:17:10;6.50;59.20
64987;DHT22;67903;52.108;9.358;2024-03-08T12:20:13;6.50;59.30
64987;DHT22;67903;52.108;9.358;2024-03-08T12:22:58;6.40;58.90
64987;DHT22;67903;52.108;9.358;2024-03-08T12:25:44;6.50;59.10
64987;DHT22;67903;52.108;9.358;2024-03-08T12:28:30;6.50;58.90
64987;DHT22;67903;52.108;9.358;2024-03-08T12:31:17;6.50;59.20
64987;DHT22;67903;52.108;9.358;2024-03-08T12:34:02;6.50;59.50
64987;DHT22;67903;52.108;9.358;2024-03-08T12:36:50;6.50;59.60
64987;DHT22;67903;52.108;9.358;2024-03-08T12:39:37;6.60;60.00
64987;DHT22;67903;52.108;9.358;2024-03-08T12:42:22;6.60;60.10
64987;DHT22;67903;52.108;9.358;2024-03-08T12:45:08;6.60;60.30
64987;DHT22;67903;52.108;9.358;2024-03-08T12:47:55;6.60;60.60
64987;DHT22;67903;52.108;9.358;2024-03-08T12:50:41;6.70;60.70
64987;DHT22;67903;52.108;9.358;2024-03-08T12:53:29;6.70;60.50
64987;DHT22;67903;52.108;9.358;2024-03-08T12:56:21;6.70;60.80
64987;DHT22;67903;52.108;9.358;2024-03-08T12:59:14;6.90;60.80
64987;DHT22;67903;52.108;9.358;2024-03-08T13:01:59;7.00;60.60
64987;DHT22;67903;52.108;9.358;2024-03-08T13:04:45;7.00;60.80
64987;DHT22;67903;52.108;9.358;2024-03-08T13:07:31;7.20;60.50
64987;DHT22;67903;52.108;9.358;2024-03-08T13:10:17;7.00;60.30
64987;DHT22;67903;52.108;9.358;2024-03-08T13:13:05;7.00;60.50
64987;DHT22;67903;52.108;9.358;2024-03-08T13:15:51;7.00;60.50
64987;DHT22;67903;52.108;9.358;2024-03-08T13:18:36;7.00;61.00
64987;DHT22;67903;52.108;9.358;2024-03-08T13:21:22;7.00;61.00
64987;DHT22;67903;52.108;9.358;2024-03-08T13:24:09;7.20;61.40
64987;DHT22;67903;52.108;9.358;2024-03-08T13:26:55;7.20;60.50
64987;DHT22;67903;52.108;9.358;2024-03-08T13:29:40;7.20;60.70
64987;DHT22;67903;52.108;9.358;2024-03-08T13:32:26;7.20;61.20
64987;DHT22;67903;52.108;9.358;2024-03-08T13:35:12;7.40;60.70
64987;DHT22;67903;52.108;9.358;2024-03-08T13:38:01;7.50;60.70
64987;DHT22;67903;52.108;9.358;2024-03-08T13:40:49;7.50;60.80
64987;DHT22;67903;52.108;9.358;2024-03-08T13:43:37;7.60;60.20
64987;DHT22;67903;52.108;9.358;2024-03-08T13:46:22;7.60;59.80
64987;DHT22;67903;52.108;9.358;2024-03-08T13:49:09;7.60;59.70
64987;DHT22;67903;52.108;9.358;2024-03-08T13:51:56;7.70;59.50
64987;DHT22;67903;52.108;9.358;2024-03-08T13:54:44;7.60;59.00
64987;DHT22;67903;52.108;9.358;2024-03-08T13:57:29;7.60;58.80
64987;DHT22;67903;52.108;9.358;2024-03-08T14:00:15;7.50;58.60
64987;DHT22;67903;52.108;9.358;2024-03-08T14:03:01;7.50;58.90
64987;DHT22;67903;52.108;9.358;2024-03-08T14:05:55;7.70;58.70
64987;DHT22;67903;52.108;9.358;2024-03-08T14:08:42;7.60;58.80
64987;DHT22;67903;52.108;9.358;2024-03-08T14:11:28;7.60;59.30
64987;DHT22;67903;52.108;9.358;2024-03-08T14:14:13;7.80;58.90
64987;DHT22;67903;52.108;9.358;2024-03-08T14:16:59;7.80;59.30
64987;DHT22;67903;52.108;9.358;2024-03-08T14:19:44;7.80;58.90
64987;DHT22;67903;52.108;9.358;2024-03-08T14:22:30;7.80;59.00
64987;DHT22;67903;52.108;9.358;2024-03-08T14:25:17;7.80;59.10
64987;DHT22;67903;52.108;9.358;2024-03-08T14:28:04;7.70;58.90
64987;DHT22;67903;52.108;9.358;2024-03-08T14:30:53;7.80;59.30
64987;DHT22;67903;52.108;9.358;2024-03-08T14:33:38;7.80;59.60
64987;DHT22;67903;52.108;9.358;2024-03-08T14:36:24;7.60;59.20
64987;DHT22;67903;52.108;9.358;2024-03-08T14:39:11;7.70;59.20
64987;DHT22;67903;52.108;9.358;2024-03-08T14:41:56;7.60;59.10
64987;DHT22;67903;52.108;9.358;2024-03-08T14:44:43;7.60;59.40
64987;DHT22;67903;52.108;9.358;2024-03-08T14:47:33;7.80;59.50
64987;DHT22;67903;52.108;9.358;2024-03-08T14:50:21;7.70;59.50
64987;DHT22;67903;52.108;9.358;2024-03-08T14:53:10;7.60;59.40
64987;DHT22;67903;52.108;9.358;2024-03-08T14:56:01;7.60;59.50
64987;DHT22;67903;52.108;9.358;2024-03-08T14:58:47;7.60;59.60
64987;DHT22;67903;52.108;9.358;2024-03-08T15:01:38;7.60;59.60
64987;DHT22;67903;52.108;9.358;2024-03-08T15:04:23;7.60;59.60
64987;DHT22;67903;52.108;9.358;2024-03-08T15:07:09;7.60;59.60
64987;DHT22;67903;52.108;9.358;2024-03-08T15:09:54;7.60;59.90
64987;DHT22;67903;52.108;9.358;2024-03-08T15:12:44;7.60;60.30
64987;DHT22;67903;52.108;9.358;2024-03-08T15:15:36;7.60;60.10
64987;DHT22;67903;52.108;9.358;2024-03-08T15:18:26;7.50;60.40
64987;DHT22;67903;52.108;9.358;2024-03-08T15:21:19;7.50;60.30
64987;DHT22;67903;52.108;9.358;2024-03-08T15:24:05;7.50;60.50
64987;DHT22;67903;52.108;9.358;2024-03-08T15:26:54;7.60;60.10
64987;DHT22;67903;52.108;9.358;2024-03-08T15:29:41;7.50;60.10
64987;DHT22;67903;52.108;9.358;2024-03-08T15:32:29;7.60;60.00
64987;DHT22;67903;52.108;9.358;2024-03-08T15:35:17;7.50;60.10
64987;DHT22;67903;52.108;9.358;2024-03-08T15:38:04;7.50;60.20
64987;DHT22;67903;52.108;9.358;2024-03-08T15:40:51;7.50;60.10
64987;DHT22;67903;52.108;9.358;2024-03-08T15:43:37;7.50;59.60
64987;DHT22;67903;52.108;9.358;2024-03-08T15:46:23;7.50;59.70
64987;DHT22;67903;52.108;9.358;2024-03-08T15:49:10;7.40;60.00
64987;DHT22;67903;52.108;9.358;2024-03-08T15:51:57;7.40;60.20
64987;DHT22;67903;52.108;9.358;2024-03-08T15:54:43;7.40;60.70
64987;DHT22;67903;52.108;9.358;2024-03-08T15:57:29;7.40;60.40
64987;DHT22;67903;52.108;9.358;2024-03-08T16:00:19;7.30;60.30
64987;DHT22;67903;52.108;9.358;2024-03-08T16:03:31;7.20;60.50
64987;DHT22;67903;52.108;9.358;2024-03-08T16:06:17;7.20;60.90
64987;DHT22;67903;52.108;9.358;2024-03-08T16:09:10;7.20;61.10
64987;DHT22;67903;52.108;9.358;2024-03-08T16:12:00;7.20;61.40
64987;DHT22;67903;52.108;9.358;2024-03-08T16:14:46;7.20;61.60
64987;DHT22;67903;52.108;9.358;2024-03-08T16:17:33;7.20;61.70
64987;DHT22;67903;52.108;9.358;2024-03-08T16:20:18;7.20;62.00
64987;DHT22;67903;52.108;9.358;2024-03-08T16:23:04;7.20;61.70
64987;DHT22;67903;52.108;9.358;2024-03-08T16:25:50;7.10;61.80
64987;DHT22;67903;52.108;9.358;2024-03-08T16:28:35;7.00;62.10
64987;DHT22;67903;52.108;9.358;2024-03-08T16:31:25;7.00;62.30
64987;DHT22;67903;52.108;9.358;2024-03-08T16:34:11;6.90;62.40
64987;DHT22;67903;52.108;9.358;2024-03-08T16:36:57;7.00;62.90
64987;DHT22;67903;52.108;9.358;2024-03-08T16:39:43;6.90;62.50
64987;DHT22;67903;52.108;9.358;2024-03-08T16:42:28;6.80;62.90
64987;DHT22;67903;52.108;9.358;2024-03-08T16:45:14;6.80;62.50
64987;DHT22;67903;52.108;9.358;2024-03-08T16:48:00;6.80;62.90
64987;DHT22;67903;52.108;9.358;2024-03-08T16:50:45;6.70;63.20
64987;DHT22;67903;52.108;9.358;2024-03-08T16:53:31;6.60;63.00
64987;DHT22;67903;52.108;9.358;2024-03-08T16:56:19;6.60;63.00
64987;DHT22;67903;52.108;9.358;2024-03-08T16:59:04;6.60;63.10
64987;DHT22;67903;52.108;9.358;2024-03-08T17:01:52;6.50;63.00
64987;DHT22;67903;52.108;9.358;2024-03-08T17:04:37;6.50;64.00
64987;DHT22;67903;52.108;9.358;2024-03-08T17:07:23;6.40;63.20
64987;DHT22;67903;52.108;9.358;2024-03-08T17:10:10;6.30;63.70
64987;DHT22;67903;52.108;9.358;2024-03-08T17:13:01;6.20;63.90
64987;DHT22;67903;52.108;9.358;2024-03-08T17:15:47;6.20;64.10
64987;DHT22;67903;52.108;9.358;2024-03-08T17:18:34;6.10;64.20
64987;DHT22;67903;52.108;9.358;2024-03-08T17:21:20;6.10;64.40
64987;DHT22;67903;52.108;9.358;2024-03-08T17:24:05;6.00;64.50
64987;DHT22;67903;52.108;9.358;2024-03-08T17:26:56;6.00;64.50
64987;DHT22;67903;52.108;9.358;2024-03-08T17:29:43;6.00;64.60
64987;DHT22;67903;52.108;9.358;2024-03-08T17:32:30;5.90;64.90
64987;DHT22;67903;52.108;9.358;2024-03-08T17:35:23;5.90;64.80
64987;DHT22;67903;52.108;9.358;2024-03-08T17:38:09;5.80;64.90
64987;DHT22;67903;52.108;9.358;2024-03-08T17:40:56;5.80;65.10
64987;DHT22;67903;52.108;9.358;2024-03-08T17:43:45;5.80;65.20
64987;DHT22;67903;52.108;9.358;2024-03-08T17:46:31;5.80;65.10
64987;DHT22;67903;52.108;9.358;2024-03-08T17:49:18;5.80;65.00
64987;DHT22;67903;52.108;9.358;2024-03-08T17:52:04;5.70;65.00